Airfield :
LOGIN :

Register | Disclaimer

   EN    FR    IT 

 










Legend :    VFR   Marginal VFR   IFR   Intensive IFR   Very Intensive IFR
Visi :
Ceiling :
>= 8 km
>= 3000ft
5 to 8 km
1000 to 3000 ft
1500m to 5 km
500 to 1000 ft
800 to 1500m
200 to 500 ft
< 800m
< 200 ft
Symbols :   Thunderstorms  Fog  Heavy snow  Heavy precipitations  Wind > 20 kt
SIGMETs :     Misc.  Thunderstorms  Icing  Turbulence  Mountain Waves  Volcanic Ashes






- Airport Elevation : 6 ft
- IATA code : PSA


LIRP - Galileo Galilei Pisa

CURRENT METAR :
  • 200145Z 09002KT 9999 FEW070 10/10 Q1013 NOSIG

EXPIRED METARs :
  • 200115Z VRB03KT 9999 SCT070 11/11 Q1013 NOSIG
  • 200045Z 11005KT 9999 FEW060 SCT080 11/11 Q1013 NOSIG
  • 200015Z 10006KT 9999 SCT060 SCT080 11/11 Q1013 NOSIG
  • 192345Z 12008KT 9999 SCT060 SCT080 11/11 Q1014 NOSIG
  • 192315Z 14004KT 9999 SCT060 SCT080 12/11 Q1014 NOSIG

TAF TAF LIRP
Valid from the 20 at 00:00 until the 21 at 00:00 UTC


192300Z 2000/2024 10005KT 9999 SCT060 SCT080
TEMPO 2018/2024 5000 RA BR SCT030 BKN060



MET'MAP, your aeronautical weather chart ! - Copyright ORBIFLY December 2007 - Disclaimer

ORBIFLY MET'MAP TEAM :

Programming & Development : Alexandra Zaïnal
Concept & Development : Baudouin d'Aumeries
Co-Development & Prog : Marc-Olivier Méhu
Technical & hardware support : Manuel Goepfert

Contact : metmap@orbifly.com




SOURCES & CREDITS :

   NOAA